TimeEST,TemperatureF,Dew PointF,Humidity,Sea Level PressureIn,VisibilityMPH,Wind Direction,Wind SpeedMPH,Gust SpeedMPH,PrecipitationIn,Events,Conditions,WindDirDegrees,DateUTC
12:15 AM,30.2,21.2,69,29.79,10.0,Calm,Calm,-,N/A,,Overcast,0,2013-01-20 05:15:00
12:35 AM,30.2,21.2,69,29.79,10.0,NW,3.5,-,N/A,,Overcast,310,2013-01-20 05:35:00
1:15 AM,30.2,21.2,69,29.78,10.0,Calm,Calm,-,N/A,,Overcast,0,2013-01-20 06:15:00
1:35 AM,30.2,23.0,75,29.77,10.0,East,3.5,-,N/A,,Overcast,100,2013-01-20 06:35:00
2:15 AM,30.2,21.2,69,29.75,10.0,Calm,Calm,-,N/A,,Mostly Cloudy,0,2013-01-20 07:15:00
2:35 AM,30.2,21.2,69,29.74,10.0,Calm,Calm,-,N/A,,Mostly Cloudy,0,2013-01-20 07:35:00
2:55 AM,28.4,21.2,74,29.72,10.0,Calm,Calm,-,N/A,,Partly Cloudy,0,2013-01-20 07:55:00
3:15 AM,28.4,21.2,74,29.70,10.0,NW,4.6,-,N/A,,Clear,320,2013-01-20 08:15:00
3:35 AM,26.6,21.2,80,29.71,10.0,Calm,Calm,-,N/A,,Scattered Clouds,0,2013-01-20 08:35:00
3:55 AM,26.6,21.2,80,29.68,10.0,East,3.5,-,N/A,,Mostly Cloudy,90,2013-01-20 08:55:00
4:15 AM,26.6,21.2,80,29.67,10.0,NW,3.5,-,N/A,,Scattered Clouds,320,2013-01-20 09:15:00
4:35 AM,24.8,19.4,80,29.66,10.0,Calm,Calm,-,N/A,,Clear,0,2013-01-20 09:35:00
4:55 AM,24.8,21.2,86,29.64,10.0,Calm,Calm,-,N/A,,Clear,0,2013-01-20 09:55:00
5:15 AM,23.0,17.6,80,29.63,10.0,Calm,Calm,-,N/A,,Clear,0,2013-01-20 10:15:00
5:35 AM,23.0,19.4,86,29.61,10.0,NNW,3.5,-,N/A,,Clear,330,2013-01-20 10:35:00
5:55 AM,21.2,17.6,86,29.59,10.0,Calm,Calm,-,N/A,,Clear,0,2013-01-20 10:55:00
6:15 AM,28.4,23.0,80,29.57,10.0,South,6.9,-,N/A,,Clear,180,2013-01-20 11:15:00
6:35 AM,32.0,23.0,69,29.57,10.0,West,4.6,-,N/A,,Clear,260,2013-01-20 11:35:00
6:55 AM,30.2,24.8,80,29.56,10.0,Calm,Calm,-,N/A,,Clear,0,2013-01-20 11:55:00
7:15 AM,35.6,26.6,70,29.53,10.0,South,10.4,16.1,N/A,,Clear,180,2013-01-20 12:15:00
7:55 AM,35.6,24.8,65,29.53,10.0,SSW,10.4,-,N/A,,Clear,200,2013-01-20 12:55:00
8:15 AM,35.6,24.8,65,29.53,10.0,SW,11.5,17.3,N/A,,Clear,230,2013-01-20 13:15:00
8:35 AM,37.4,26.6,65,29.52,10.0,SSW,9.2,17.3,N/A,,Clear,210,2013-01-20 13:35:00
8:55 AM,37.4,24.8,60,29.51,10.0,SSW,12.7,19.6,N/A,,Clear,200,2013-01-20 13:55:00
9:15 AM,37.4,26.6,65,29.50,10.0,SSW,13.8,19.6,N/A,,Clear,200,2013-01-20 14:15:00
9:35 AM,39.2,26.6,61,29.49,10.0,SSW,15.0,21.9,N/A,,Clear,200,2013-01-20 14:35:00
9:55 AM,39.2,26.6,61,29.48,10.0,SSW,12.7,19.6,N/A,,Clear,200,2013-01-20 14:55:00
10:55 AM,44.6,26.6,49,29.46,10.0,SW,19.6,26.5,N/A,,Clear,220,2013-01-20 15:55:00
11:15 AM,44.6,26.6,49,29.46,10.0,WSW,16.1,24.2,N/A,,Mostly Cloudy,250,2013-01-20 16:15:00
11:35 AM,44.6,26.6,49,29.48,10.0,West,20.7,27.6,N/A,,Overcast,260,2013-01-20 16:35:00
11:55 AM,41.0,28.4,61,29.50,10.0,West,19.6,26.5,N/A,,Overcast,270,2013-01-20 16:55:00
12:15 PM,39.2,30.2,70,29.50,10.0,West,17.3,25.3,N/A,,Overcast,260,2013-01-20 17:15:00
12:35 PM,39.2,28.4,65,29.50,10.0,WSW,24.2,38.0,N/A,,Overcast,240,2013-01-20 17:35:00
12:55 PM,37.4,30.2,75,29.49,10.0,WSW,18.4,26.5,N/A,,Scattered Clouds,240,2013-01-20 17:55:00
1:15 PM,39.2,26.6,61,29.49,10.0,WSW,21.9,31.1,N/A,,Clear,250,2013-01-20 18:15:00
1:35 PM,39.2,23.0,52,29.50,10.0,WSW,20.7,33.4,N/A,,Clear,250,2013-01-20 18:35:00
2:35 PM,41.0,15.8,36,29.54,10.0,WSW,19.6,32.2,N/A,,Clear,250,2013-01-20 19:35:00
2:55 PM,41.0,14.0,33,29.55,10.0,West,15.0,28.8,N/A,,Clear,260,2013-01-20 19:55:00
3:15 PM,39.2,12.2,33,29.57,10.0,WSW,24.2,35.7,N/A,,Clear,250,2013-01-20 20:15:00
3:35 PM,37.4,12.2,36,29.58,10.0,WSW,25.3,33.4,N/A,,Clear,250,2013-01-20 20:35:00
3:55 PM,37.4,12.2,36,29.60,10.0,WSW,24.2,36.8,N/A,,Clear,250,2013-01-20 20:55:00
4:15 PM,37.4,12.2,36,29.62,10.0,WSW,18.4,32.2,N/A,,Scattered Clouds,250,2013-01-20 21:15:00
4:35 PM,35.6,10.4,35,29.65,10.0,West,20.7,31.1,N/A,,Partly Cloudy,270,2013-01-20 21:35:00
4:55 PM,33.8,10.4,38,29.67,10.0,West,18.4,34.5,N/A,,Clear,270,2013-01-20 21:55:00
5:35 PM,32.0,10.4,41,29.71,10.0,West,19.6,38.0,N/A,,Mostly Cloudy,270,2013-01-20 22:35:00
5:55 PM,30.2,8.6,40,29.72,10.0,West,17.3,29.9,N/A,,Partly Cloudy,270,2013-01-20 22:55:00
6:15 PM,30.2,8.6,40,29.73,10.0,West,11.5,24.2,N/A,,Scattered Clouds,260,2013-01-20 23:15:00
6:35 PM,30.2,8.6,40,29.73,10.0,West,12.7,27.6,N/A,,Partly Cloudy,260,2013-01-20 23:35:00
6:55 PM,28.4,8.6,43,29.73,10.0,West,18.4,21.9,N/A,,Scattered Clouds,260,2013-01-20 23:55:00
7:15 PM,28.4,8.6,43,29.74,10.0,West,13.8,21.9,N/A,,Partly Cloudy,260,2013-01-21 00:15:00
7:35 PM,28.4,8.6,43,29.74,10.0,West,12.7,25.3,N/A,,Partly Cloudy,260,2013-01-21 00:35:00
7:55 PM,28.4,8.6,43,29.75,10.0,West,18.4,27.6,N/A,,Partly Cloudy,260,2013-01-21 00:55:00
8:35 PM,28.4,8.6,43,29.78,10.0,West,24.2,46.0,N/A,,Clear,260,2013-01-21 01:35:00
8:55 PM,26.6,5.0,40,29.78,10.0,West,23.0,35.7,N/A,,Clear,260,2013-01-21 01:55:00
9:15 PM,26.6,3.2,37,29.80,10.0,West,15.0,32.2,N/A,,Clear,260,2013-01-21 02:15:00
9:35 PM,24.8,1.4,36,29.81,10.0,West,20.7,34.5,N/A,,Clear,260,2013-01-21 02:35:00
9:55 PM,24.8,-0.4,34,29.82,10.0,West,16.1,31.1,N/A,,Clear,260,2013-01-21 02:55:00
10:15 PM,24.8,-0.4,34,29.83,10.0,West,12.7,27.6,N/A,,Clear,270,2013-01-21 03:15:00
10:35 PM,24.8,-0.4,34,29.84,10.0,West,19.6,35.7,N/A,,Clear,260,2013-01-21 03:35:00
11:15 PM,23.0,-0.4,36,29.86,10.0,West,13.8,21.9,N/A,,Clear,260,2013-01-21 04:15:00
11:35 PM,21.2,-2.2,36,29.86,10.0,West,15.0,31.1,N/A,,Clear,260,2013-01-21 04:35:00
11:55 PM,21.2,-2.2,36,29.87,10.0,West,15.0,27.6,N/A,,Clear,260,2013-01-21 04:55:00